createdAt,value
2023-02-01T00:00:03.683Z,3.73
2023-02-01T00:01:09.877Z,3.68
2023-02-01T00:02:12.291Z,3.42
2023-02-01T00:03:15.765Z,3.67
2023-02-01T00:04:18.268Z,3.58
2023-02-01T00:05:20.657Z,3.53
2023-02-01T00:06:23.070Z,3.35
2023-02-01T00:07:25.421Z,3.20
2023-02-01T00:08:28.403Z,2.83
2023-02-01T00:09:30.762Z,2.95
2023-02-01T00:10:33.095Z,2.68
2023-02-01T00:11:35.743Z,3.00
2023-02-01T00:12:38.106Z,2.72
2023-02-01T00:13:42.610Z,2.70
2023-02-01T00:14:44.983Z,2.70
2023-02-01T00:15:47.386Z,2.83
2023-02-01T00:16:49.763Z,2.63
2023-02-01T00:17:55.816Z,2.37
2023-02-01T00:19:04.148Z,2.92
2023-02-01T00:20:07.086Z,2.70
2023-02-01T00:21:11.716Z,2.63
2023-02-01T00:22:14.045Z,2.67
2023-02-01T00:23:16.361Z,2.50
2023-02-01T00:24:18.734Z,2.43
2023-02-01T00:25:21.079Z,2.57
2023-02-01T00:26:33.465Z,2.55
2023-02-01T00:27:35.866Z,2.68
2023-02-01T00:28:38.203Z,2.47
2023-02-01T00:29:41.300Z,2.15
2023-02-01T00:30:43.654Z,2.28
2023-02-01T00:31:46.301Z,2.30
2023-02-01T00:32:48.680Z,2.33
2023-02-01T00:33:51.300Z,2.53
2023-02-01T00:34:53.691Z,2.37
2023-02-01T00:36:00.048Z,2.60
2023-02-01T00:37:02.388Z,2.75
2023-02-01T00:38:04.839Z,2.33
2023-02-01T00:39:07.205Z,2.43
2023-02-01T00:40:10.241Z,2.48
2023-02-01T00:41:14.309Z,2.07
2023-02-01T00:42:16.614Z,2.23
2023-02-01T00:43:18.980Z,2.37
2023-02-01T00:44:21.445Z,2.50
2023-02-01T00:45:23.775Z,2.50
2023-02-01T00:46:26.364Z,2.47
2023-02-01T00:47:28.697Z,2.30
2023-02-01T00:48:31.435Z,2.38
2023-02-01T00:49:33.764Z,2.55
2023-02-01T00:50:36.177Z,2.47
2023-02-01T00:51:38.522Z,2.43
2023-02-01T00:52:40.865Z,2.37
2023-02-01T00:53:43.433Z,2.23
2023-02-01T00:54:45.769Z,2.30
2023-02-01T00:55:48.783Z,2.30
2023-02-01T00:56:51.138Z,2.18
2023-02-01T00:57:53.494Z,2.30
2023-02-01T00:58:56.164Z,2.27
2023-02-01T00:59:58.485Z,2.25
2023-02-01T01:01:06.817Z,2.27
2023-02-01T01:02:09.262Z,2.27
2023-02-01T01:03:20.563Z,2.23
2023-02-01T01:04:22.889Z,2.28
2023-02-01T01:05:25.315Z,2.05
2023-02-01T01:06:31.305Z,2.18
2023-02-01T01:07:33.620Z,2.43
2023-02-01T01:08:37.052Z,2.38
2023-02-01T01:09:39.530Z,2.23
2023-02-01T01:10:42.511Z,2.15
2023-02-01T01:11:44.878Z,2.65
2023-02-01T01:12:47.184Z,2.60
2023-02-01T01:13:51.845Z,2.33
2023-02-01T01:14:54.202Z,2.57
2023-02-01T01:15:56.642Z,3.00
2023-02-01T01:16:59.038Z,2.85
2023-02-01T01:18:01.402Z,2.80
2023-02-01T01:19:04.239Z,2.98
2023-02-01T01:20:06.969Z,2.97
2023-02-01T01:21:10.431Z,2.92
2023-02-01T01:22:12.831Z,3.05
2023-02-01T01:23:15.174Z,2.97
2023-02-01T01:24:17.532Z,3.23
2023-02-01T01:25:19.903Z,3.07
2023-02-01T01:26:25.364Z,3.07
2023-02-01T01:27:27.723Z,2.87
2023-02-01T01:28:30.123Z,3.03
2023-02-01T01:29:32.508Z,3.47
2023-02-01T01:30:35.877Z,3.53
2023-02-01T01:31:38.325Z,3.28
2023-02-01T01:32:40.720Z,3.45
2023-02-01T01:33:44.940Z,3.37
2023-02-01T01:34:47.704Z,3.60
2023-02-01T01:35:50.026Z,3.55
2023-02-01T01:36:52.394Z,3.57
2023-02-01T01:37:54.772Z,3.30
2023-02-01T01:38:57.205Z,3.53
2023-02-01T01:39:59.587Z,3.62
2023-02-01T01:41:02.589Z,3.67
2023-02-01T01:42:04.972Z,3.93
2023-02-01T01:43:15.013Z,3.77
2023-02-01T01:44:54.698Z,3.63
2023-02-01T01:45:57.023Z,3.50
2023-02-01T01:46:59.363Z,3.67
2023-02-01T01:48:12.826Z,3.78
2023-02-01T01:49:18.967Z,3.77
2023-02-01T01:51:01.963Z,3.68
2023-02-01T01:52:04.519Z,3.83
2023-02-01T01:53:09.970Z,3.47
2023-02-01T01:54:18.386Z,3.63
2023-02-01T01:55:21.813Z,3.35
2023-02-01T01:56:25.841Z,3.52
2023-02-01T01:57:34.136Z,3.88
2023-02-01T01:58:36.694Z,3.58
2023-02-01T01:59:41.523Z,3.65
2023-02-01T02:00:45.115Z,3.88
2023-02-01T02:01:48.039Z,4.10
2023-02-01T02:02:58.667Z,4.00
2023-02-01T02:04:01.811Z,3.97
2023-02-01T02:05:05.397Z,3.95
2023-02-01T02:06:28.811Z,4.12
2023-02-01T02:08:39.638Z,4.00
2023-02-01T02:09:54.560Z,4.18
2023-02-01T02:11:01.798Z,4.08
2023-02-01T02:12:04.443Z,4.08
2023-02-01T02:13:06.830Z,4.30
2023-02-01T02:14:13.185Z,3.88
2023-02-01T02:15:17.103Z,3.87
2023-02-01T02:16:28.560Z,3.95
2023-02-01T02:18:01.490Z,3.85
2023-02-01T02:19:38.864Z,3.97
2023-02-01T02:21:11.783Z,3.90
2023-02-01T02:22:40.073Z,4.32
2023-02-01T02:24:04.244Z,4.30
2023-02-01T02:25:31.312Z,3.97
2023-02-01T02:26:33.653Z,4.35
2023-02-01T02:27:51.167Z,4.28
2023-02-01T02:29:13.764Z,3.98
2023-02-01T02:30:34.893Z,3.92
2023-02-01T02:31:55.637Z,3.83
2023-02-01T02:33:19.563Z,3.77
2023-02-01T02:34:45.384Z,4.17
2023-02-01T02:35:53.976Z,4.02
2023-02-01T02:37:31.832Z,4.02
2023-02-01T02:38:38.232Z,3.92
2023-02-01T02:39:54.283Z,4.08
2023-02-01T02:41:40.114Z,4.32
2023-02-01T02:43:25.317Z,3.82
2023-02-01T02:44:55.422Z,4.02
2023-02-01T02:46:38.206Z,4.37
2023-02-01T02:47:44.229Z,4.05
2023-02-01T02:48:56.726Z,4.45
2023-02-01T02:50:31.612Z,4.27
2023-02-01T02:52:01.062Z,4.18
2023-02-01T02:53:34.912Z,4.00
2023-02-01T02:54:48.812Z,3.70
2023-02-01T02:55:51.903Z,4.47
2023-02-01T02:57:16.512Z,4.12
2023-02-01T02:58:39.176Z,4.28
2023-02-01T03:00:02.445Z,4.37
2023-02-01T03:01:24.161Z,4.40
2023-02-01T03:02:47.044Z,4.35
2023-02-01T03:04:10.040Z,4.22
2023-02-01T03:05:12.975Z,4.28
2023-02-01T03:06:18.360Z,4.17
2023-02-01T03:07:45.077Z,4.50
2023-02-01T03:08:48.061Z,4.08
2023-02-01T03:09:53.944Z,4.18
2023-02-01T03:11:09.038Z,4.12
2023-02-01T03:12:33.522Z,4.13
2023-02-01T03:13:59.744Z,4.20
2023-02-01T03:15:09.561Z,4.37
2023-02-01T03:16:22.642Z,4.22
2023-02-01T03:17:31.636Z,4.18
2023-02-01T03:18:41.032Z,4.38
2023-02-01T03:19:51.211Z,4.23
2023-02-01T03:20:55.962Z,4.20
2023-02-01T03:22:05.957Z,4.12
2023-02-01T03:23:09.072Z,3.92
2023-02-01T03:24:20.201Z,4.22
2023-02-01T03:25:27.109Z,3.70
2023-02-01T03:26:32.249Z,3.80
2023-02-01T03:27:50.924Z,4.00
2023-02-01T03:28:58.662Z,4.17
2023-02-01T03:30:23.408Z,3.97
2023-02-01T03:31:26.035Z,4.25
2023-02-01T03:32:29.072Z,3.93
2023-02-01T03:33:32.095Z,3.92
2023-02-01T03:34:34.635Z,4.15
2023-02-01T03:35:49.118Z,3.87
2023-02-01T03:37:01.657Z,4.20
2023-02-01T03:38:12.753Z,3.93
2023-02-01T03:39:58.076Z,4.23
2023-02-01T03:41:10.441Z,4.03
2023-02-01T03:42:40.502Z,3.92
2023-02-01T03:43:56.219Z,3.63
2023-02-01T03:45:11.954Z,3.75
2023-02-01T03:46:22.180Z,3.78
2023-02-01T03:47:28.388Z,3.60
2023-02-01T03:48:31.315Z,3.87
2023-02-01T03:49:52.559Z,3.85
2023-02-01T03:50:58.508Z,3.82
2023-02-01T03:52:01.693Z,3.67
2023-02-01T03:53:11.676Z,3.95
2023-02-01T03:54:16.866Z,3.63
2023-02-01T03:55:22.081Z,3.97
2023-02-01T03:56:26.773Z,3.87
2023-02-01T03:57:34.808Z,3.72
2023-02-01T03:58:37.361Z,4.10
2023-02-01T03:59:43.953Z,4.08
2023-02-01T04:00:55.404Z,4.27
2023-02-01T04:01:57.834Z,4.20
2023-02-01T04:03:00.319Z,5.15
2023-02-01T04:04:02.671Z,4.70
2023-02-01T04:05:05.307Z,4.62
2023-02-01T04:06:07.680Z,4.75
2023-02-01T04:07:10.463Z,4.98
2023-02-01T04:08:12.789Z,5.17
2023-02-01T04:09:15.181Z,5.10
2023-02-01T04:10:19.962Z,4.52
2023-02-01T04:11:22.453Z,4.98
2023-02-01T04:12:24.827Z,4.80
2023-02-01T04:13:27.203Z,4.53
2023-02-01T04:14:29.531Z,4.77
2023-02-01T04:15:31.886Z,5.63
2023-02-01T04:16:34.999Z,6.58
2023-02-01T04:18:38.560Z,6.55
2023-02-01T04:19:40.921Z,5.98
2023-02-01T04:20:44.068Z,5.58
2023-02-01T04:21:46.465Z,5.53
2023-02-01T04:22:48.794Z,5.37
2023-02-01T04:23:51.726Z,4.68
2023-02-01T04:24:54.087Z,4.55
2023-02-01T04:26:01.400Z,5.10
2023-02-01T04:27:03.839Z,4.78
2023-02-01T04:28:07.933Z,4.45
2023-02-01T04:29:11.285Z,4.80
2023-02-01T04:30:14.652Z,3.97
2023-02-01T04:31:18.182Z,4.22
2023-02-01T04:32:23.501Z,5.23
2023-02-01T04:33:25.937Z,6.97
2023-02-01T04:34:28.320Z,6.82
2023-02-01T04:35:30.692Z,5.70
2023-02-01T04:36:33.077Z,4.90
2023-02-01T04:37:35.755Z,4.47
2023-02-01T04:38:38.126Z,4.60
2023-02-01T04:39:40.543Z,4.50
2023-02-01T04:40:42.915Z,4.55
2023-02-01T04:41:45.245Z,4.60
2023-02-01T04:42:47.571Z,4.88
2023-02-01T04:43:51.114Z,5.10
2023-02-01T04:44:53.453Z,4.88
2023-02-01T04:45:55.829Z,4.57
2023-02-01T04:46:59.711Z,4.10
2023-02-01T04:48:02.090Z,4.62
2023-02-01T04:49:04.479Z,4.25
2023-02-01T04:50:08.528Z,4.55
2023-02-01T04:51:12.101Z,4.17
2023-02-01T04:52:14.495Z,4.15
2023-02-01T04:53:17.593Z,3.95
2023-02-01T04:54:19.953Z,4.13
2023-02-01T04:55:22.329Z,4.47
2023-02-01T04:56:24.714Z,4.43
2023-02-01T04:57:27.755Z,4.35
2023-02-01T04:58:30.106Z,4.12
2023-02-01T04:59:32.473Z,4.28
2023-02-01T05:00:35.113Z,4.25
2023-02-01T05:01:37.484Z,3.62
2023-02-01T05:02:39.952Z,4.03
2023-02-01T05:03:42.374Z,4.00
2023-02-01T05:04:44.735Z,4.43
2023-02-01T05:05:49.543Z,4.38
2023-02-01T05:06:51.885Z,4.22
2023-02-01T05:07:54.221Z,4.22
2023-02-01T05:09:02.480Z,4.12
2023-02-01T05:10:04.996Z,4.43
2023-02-01T05:11:10.410Z,4.13
2023-02-01T05:12:31.734Z,4.62
2023-02-01T05:13:49.213Z,4.35
2023-02-01T05:15:00.305Z,4.38
2023-02-01T05:16:05.487Z,4.55
2023-02-01T05:17:07.863Z,4.58
2023-02-01T05:18:10.386Z,4.52
2023-02-01T05:19:13.604Z,4.58
2023-02-01T05:20:20.097Z,4.47
2023-02-01T05:21:22.689Z,4.15
2023-02-01T05:22:27.946Z,4.27
2023-02-01T05:23:36.317Z,4.25
2023-02-01T05:24:38.640Z,3.93
2023-02-01T05:25:40.939Z,4.08
2023-02-01T05:26:47.239Z,4.48
2023-02-01T05:27:51.537Z,4.23
2023-02-01T05:28:53.905Z,4.22
2023-02-01T05:29:56.292Z,4.27
2023-02-01T05:30:58.705Z,4.33
2023-02-01T05:32:11.634Z,4.23
2023-02-01T05:33:24.388Z,4.42
2023-02-01T05:34:44.968Z,4.25
2023-02-01T05:35:47.776Z,4.52
2023-02-01T05:36:52.382Z,4.48
2023-02-01T05:37:54.811Z,4.57
2023-02-01T05:38:57.143Z,4.63
2023-02-01T05:39:59.458Z,4.47
2023-02-01T05:41:01.874Z,4.25
2023-02-01T05:42:04.773Z,4.53
2023-02-01T05:43:07.490Z,4.67
2023-02-01T05:44:10.855Z,4.67
2023-02-01T05:45:13.220Z,4.65
2023-02-01T05:46:15.691Z,4.40
2023-02-01T05:47:18.141Z,4.62
2023-02-01T05:48:20.574Z,4.27
2023-02-01T05:49:22.998Z,4.30
2023-02-01T05:50:25.500Z,4.72
2023-02-01T05:51:27.917Z,5.00
2023-02-01T05:52:30.380Z,4.88
2023-02-01T05:53:32.796Z,5.02
2023-02-01T05:54:35.168Z,4.63
2023-02-01T05:55:38.073Z,4.57
2023-02-01T05:56:41.880Z,4.55
2023-02-01T05:57:44.205Z,4.28
2023-02-01T05:58:46.652Z,4.53
2023-02-01T05:59:49.759Z,4.57
2023-02-01T06:00:52.108Z,4.42
2023-02-01T06:01:54.517Z,4.13
2023-02-01T06:02:56.980Z,4.22
2023-02-01T06:03:59.394Z,4.18
2023-02-01T06:05:01.814Z,4.32
2023-02-01T06:06:05.178Z,4.27
2023-02-01T06:07:08.789Z,4.38
2023-02-01T06:08:11.202Z,4.12
2023-02-01T06:09:13.547Z,4.65
2023-02-01T06:10:16.512Z,4.90
2023-02-01T06:11:31.804Z,5.17
2023-02-01T06:12:34.594Z,4.80
2023-02-01T06:13:39.730Z,5.37
2023-02-01T06:14:44.385Z,5.58
2023-02-01T06:15:46.960Z,6.87
2023-02-01T06:16:49.819Z,6.60
2023-02-01T06:17:52.217Z,6.75
2023-02-01T06:18:55.507Z,7.05
2023-02-01T06:19:58.379Z,8.53
2023-02-01T06:21:01.798Z,8.13
2023-02-01T06:22:07.180Z,7.42
2023-02-01T06:23:09.576Z,6.92
2023-02-01T06:24:11.979Z,6.42
2023-02-01T06:25:14.874Z,6.68
2023-02-01T06:26:19.172Z,6.25
2023-02-01T06:27:21.526Z,5.75
2023-02-01T06:28:24.178Z,5.88
2023-02-01T06:29:27.687Z,5.62
2023-02-01T06:30:31.636Z,5.22
2023-02-01T06:31:34.732Z,4.97
2023-02-01T06:32:37.560Z,4.87
2023-02-01T06:33:43.066Z,4.63
2023-02-01T06:34:45.432Z,5.05
2023-02-01T06:35:48.183Z,5.07
2023-02-01T06:36:50.565Z,5.07
2023-02-01T06:37:52.934Z,4.73
2023-02-01T06:38:57.693Z,5.40
2023-02-01T06:40:00.346Z,5.05
2023-02-01T06:41:03.512Z,5.10
2023-02-01T06:42:07.354Z,5.05
2023-02-01T06:43:10.890Z,5.32
2023-02-01T06:44:13.448Z,5.33
2023-02-01T06:45:16.327Z,5.37
2023-02-01T06:46:19.215Z,4.85
2023-02-01T06:47:21.720Z,5.52
2023-02-01T06:48:24.110Z,5.45
2023-02-01T06:49:26.995Z,5.72
2023-02-01T06:50:29.947Z,5.78
2023-02-01T06:51:34.084Z,5.43
2023-02-01T06:52:36.851Z,5.30
2023-02-01T06:53:39.242Z,5.75
2023-02-01T06:54:42.265Z,5.23
2023-02-01T06:56:00.218Z,5.43
2023-02-01T06:57:02.709Z,5.72
2023-02-01T06:58:05.239Z,5.73
2023-02-01T06:59:08.883Z,5.53
2023-02-01T07:00:18.640Z,5.73
2023-02-01T07:01:21.498Z,5.17
2023-02-01T07:02:23.999Z,5.58
2023-02-01T07:03:26.358Z,5.08
2023-02-01T07:04:28.794Z,5.15
2023-02-01T07:05:32.316Z,5.28
2023-02-01T07:06:37.588Z,5.10
2023-02-01T07:07:51.383Z,5.32
2023-02-01T07:08:57.420Z,5.17
2023-02-01T07:10:18.499Z,5.67
2023-02-01T07:11:45.172Z,6.08
2023-02-01T07:13:11.741Z,5.87
2023-02-01T07:14:14.744Z,5.62
2023-02-01T07:17:32.180Z,6.15
2023-02-01T07:18:34.753Z,5.78
2023-02-01T07:19:37.106Z,5.72
2023-02-01T07:20:39.475Z,6.20
2023-02-01T07:21:41.797Z,7.65
2023-02-01T07:22:44.251Z,8.30
2023-02-01T07:23:46.919Z,9.83
2023-02-01T07:24:49.270Z,9.53
2023-02-01T07:25:59.794Z,8.88
2023-02-01T07:27:02.162Z,8.08
2023-02-01T07:28:04.583Z,7.62
2023-02-01T07:29:07.032Z,7.60
2023-02-01T07:30:10.379Z,7.48
2023-02-01T07:31:20.242Z,7.65
2023-02-01T07:32:22.631Z,8.13
2023-02-01T07:33:28.077Z,7.92
2023-02-01T07:34:32.034Z,7.93
2023-02-01T07:35:34.351Z,9.13
2023-02-01T07:36:37.376Z,10.77
2023-02-01T07:37:39.752Z,11.13
2023-02-01T07:38:42.711Z,13.53
2023-02-01T07:39:45.141Z,13.68
2023-02-01T07:40:47.547Z,12.32
2023-02-01T07:41:49.954Z,11.02
2023-02-01T07:42:52.329Z,9.67
2023-02-01T07:43:55.225Z,9.67
2023-02-01T07:44:59.776Z,8.50
2023-02-01T07:46:08.077Z,8.47
2023-02-01T07:47:10.479Z,7.65
2023-02-01T07:48:12.946Z,7.03
2023-02-01T07:49:15.451Z,6.25
2023-02-01T07:50:18.684Z,6.37
2023-02-01T07:51:22.047Z,6.07
2023-02-01T07:53:03.603Z,5.57
2023-02-01T07:54:09.297Z,5.78
2023-02-01T07:55:12.902Z,5.85
2023-02-01T07:56:29.688Z,5.95
2023-02-01T07:57:36.939Z,6.02
2023-02-01T07:58:46.266Z,5.57
2023-02-01T08:00:11.330Z,5.58
2023-02-01T08:01:21.778Z,5.85
2023-02-01T08:02:24.315Z,6.12
2023-02-01T08:03:29.947Z,6.28
2023-02-01T08:04:33.372Z,5.92
2023-02-01T08:05:38.148Z,6.05
2023-02-01T08:07:11.722Z,5.90
2023-02-01T08:08:27.582Z,6.37
2023-02-01T08:09:30.340Z,5.97
2023-02-01T08:10:33.402Z,6.10
2023-02-01T08:11:38.992Z,6.12
2023-02-01T08:12:44.496Z,5.93
2023-02-01T08:13:47.572Z,6.05
2023-02-01T08:14:51.364Z,5.88
2023-02-01T08:15:57.465Z,5.92
2023-02-01T08:17:00.943Z,6.07
2023-02-01T08:18:04.458Z,6.30
2023-02-01T08:19:07.346Z,6.73
2023-02-01T08:20:54.875Z,6.02
2023-02-01T08:21:58.192Z,6.12
2023-02-01T08:23:01.114Z,5.93
2023-02-01T08:24:07.246Z,5.82
2023-02-01T08:25:10.528Z,5.85
2023-02-01T08:26:22.284Z,6.13
2023-02-01T08:27:27.632Z,6.25
2023-02-01T08:28:30.609Z,5.92
2023-02-01T08:29:36.812Z,6.12
2023-02-01T08:30:40.435Z,6.12
2023-02-01T08:31:43.248Z,6.10
2023-02-01T08:32:45.807Z,5.83
2023-02-01T08:33:53.967Z,6.03
2023-02-01T08:34:56.865Z,6.12
2023-02-01T08:36:02.310Z,6.02
2023-02-01T08:37:05.108Z,6.30
2023-02-01T08:38:08.617Z,6.67
2023-02-01T08:39:12.863Z,6.53
2023-02-01T08:40:15.559Z,6.38
2023-02-01T08:41:25.086Z,6.65
2023-02-01T08:42:49.473Z,5.88
2023-02-01T08:43:55.867Z,5.58
2023-02-01T08:45:00.342Z,5.87
2023-02-01T08:46:07.352Z,5.60
2023-02-01T08:47:10.019Z,5.53
2023-02-01T08:48:12.441Z,5.67
2023-02-01T08:49:14.908Z,5.62
2023-02-01T08:50:18.517Z,5.72
2023-02-01T08:51:23.275Z,5.80
2023-02-01T08:52:26.091Z,5.45
2023-02-01T08:53:39.216Z,5.62
2023-02-01T08:54:45.532Z,5.42
2023-02-01T08:55:48.172Z,5.27
2023-02-01T08:56:52.871Z,5.75
2023-02-01T08:57:55.437Z,5.68
2023-02-01T08:58:57.878Z,5.22
2023-02-01T09:00:01.267Z,5.33
2023-02-01T09:01:08.710Z,5.07
2023-02-01T09:02:18.319Z,4.77
2023-02-01T09:03:20.734Z,5.07
2023-02-01T09:04:23.211Z,4.75
2023-02-01T09:05:35.064Z,4.87
2023-02-01T09:06:43.224Z,4.63
2023-02-01T09:07:45.658Z,4.70
2023-02-01T09:08:48.122Z,4.87
2023-02-01T09:09:50.560Z,5.23
2023-02-01T09:10:53.018Z,4.67
2023-02-01T09:11:55.510Z,4.92
2023-02-01T09:12:58.490Z,5.20
2023-02-01T09:14:00.952Z,5.20
2023-02-01T09:15:03.855Z,4.98
2023-02-01T09:16:06.678Z,4.65
2023-02-01T09:17:09.374Z,4.93
2023-02-01T09:18:11.807Z,4.68
2023-02-01T09:19:25.967Z,4.82
2023-02-01T09:20:29.185Z,4.80
2023-02-01T09:21:31.614Z,5.43
2023-02-01T09:22:34.041Z,5.08
2023-02-01T09:23:36.665Z,4.88
2023-02-01T09:24:39.042Z,4.90
2023-02-01T09:25:51.597Z,6.32
2023-02-01T09:26:54.187Z,6.43
2023-02-01T09:27:56.546Z,6.10
2023-02-01T09:28:59.495Z,5.17
2023-02-01T09:30:05.695Z,5.22
2023-02-01T09:31:08.182Z,5.55
2023-02-01T09:32:10.904Z,6.17
2023-02-01T09:33:13.382Z,5.30
2023-02-01T09:34:15.903Z,5.17
2023-02-01T09:35:18.411Z,4.88
2023-02-01T09:36:21.120Z,5.03
2023-02-01T09:37:24.059Z,5.20
2023-02-01T09:38:29.014Z,5.17
2023-02-01T09:39:31.368Z,5.08
2023-02-01T09:40:35.840Z,4.70
2023-02-01T09:41:51.580Z,5.05
2023-02-01T09:43:13.391Z,5.35
2023-02-01T09:44:44.108Z,5.05
2023-02-01T09:46:05.083Z,4.90
2023-02-01T09:47:13.375Z,4.50
2023-02-01T09:48:21.078Z,4.78
2023-02-01T09:49:29.809Z,4.68
2023-02-01T09:50:38.503Z,4.72
2023-02-01T09:51:45.686Z,4.48
2023-02-01T09:53:01.461Z,4.70
2023-02-01T09:54:14.167Z,4.97
2023-02-01T09:55:21.988Z,4.72
2023-02-01T09:56:36.177Z,5.03
2023-02-01T09:57:47.448Z,5.57
2023-02-01T09:58:55.827Z,5.75
2023-02-01T10:00:04.366Z,4.93
2023-02-01T10:01:17.958Z,5.00
2023-02-01T10:02:26.881Z,4.92
2023-02-01T10:03:31.795Z,5.05
2023-02-01T10:04:34.586Z,5.27
2023-02-01T10:05:51.828Z,6.12
2023-02-01T10:07:21.375Z,9.88
2023-02-01T10:09:02.109Z,7.13
2023-02-01T10:10:06.117Z,5.10
2023-02-01T10:11:50.557Z,5.17
2023-02-01T10:13:28.191Z,5.53
2023-02-01T10:14:46.876Z,5.65
2023-02-01T10:16:34.512Z,5.33
2023-02-01T10:17:52.661Z,5.58
2023-02-01T10:19:34.130Z,5.68
2023-02-01T10:20:57.662Z,5.98
2023-02-01T10:22:04.324Z,5.95
2023-02-01T10:23:34.893Z,6.38
2023-02-01T10:24:58.329Z,6.73
2023-02-01T10:26:19.986Z,6.38
2023-02-01T10:27:34.315Z,6.93
2023-02-01T10:28:39.256Z,7.23
2023-02-01T10:29:46.913Z,6.08
2023-02-01T10:30:50.279Z,6.22
2023-02-01T10:31:57.470Z,6.43
2023-02-01T10:33:19.354Z,7.28
2023-02-01T10:34:30.119Z,6.73
2023-02-01T10:36:03.989Z,6.28
2023-02-01T10:39:06.221Z,6.40
2023-02-01T10:40:26.508Z,8.55
2023-02-01T10:42:11.520Z,19.62
2023-02-01T10:43:14.943Z,13.28
2023-02-01T10:44:26.486Z,8.93
2023-02-01T10:45:31.262Z,7.88
2023-02-01T10:46:35.696Z,8.60
2023-02-01T10:47:38.100Z,8.25
2023-02-01T10:48:42.249Z,8.68
2023-02-01T10:49:55.643Z,8.55
2023-02-01T10:51:16.269Z,8.75
2023-02-01T10:52:24.948Z,7.35
2023-02-01T10:53:47.361Z,6.58
2023-02-01T10:54:49.765Z,6.78
2023-02-01T10:55:54.207Z,7.18
2023-02-01T10:56:56.723Z,7.50
2023-02-01T10:58:01.885Z,7.58
2023-02-01T10:59:06.330Z,7.03
2023-02-01T11:00:22.478Z,7.57
2023-02-01T11:01:35.734Z,7.15
2023-02-01T11:02:38.236Z,6.50
2023-02-01T11:03:58.475Z,6.72
2023-02-01T11:05:06.257Z,6.82
2023-02-01T11:06:12.959Z,7.23
2023-02-01T11:07:18.011Z,6.83
2023-02-01T11:08:20.928Z,6.37
2023-02-01T11:09:25.787Z,6.58
2023-02-01T11:10:43.341Z,5.87
2023-02-01T11:11:48.627Z,6.78
2023-02-01T11:12:55.188Z,6.70
2023-02-01T11:14:00.192Z,6.33
2023-02-01T11:15:25.853Z,6.90
2023-02-01T11:16:36.168Z,6.73
2023-02-01T11:17:44.627Z,7.07
2023-02-01T11:18:58.200Z,6.57
2023-02-01T11:20:03.792Z,6.40
2023-02-01T11:21:08.082Z,6.73
2023-02-01T11:22:13.323Z,7.93
2023-02-01T11:23:24.911Z,9.45
2023-02-01T11:24:30.526Z,9.80
2023-02-01T11:25:37.042Z,8.87
2023-02-01T11:26:42.501Z,11.33
2023-02-01T11:27:54.738Z,11.45
2023-02-01T11:29:17.861Z,10.10
2023-02-01T11:30:34.322Z,9.07
2023-02-01T11:32:21.196Z,9.17
2023-02-01T11:33:35.474Z,7.68
2023-02-01T11:34:53.968Z,8.42
2023-02-01T11:36:00.945Z,9.93
2023-02-01T11:37:05.660Z,8.55
2023-02-01T11:38:28.711Z,6.95
2023-02-01T11:39:36.176Z,5.32
2023-02-01T11:40:39.873Z,4.85
2023-02-01T11:42:06.935Z,5.97
2023-02-01T11:43:29.660Z,5.65
2023-02-01T11:45:06.229Z,5.18
2023-02-01T11:46:27.307Z,5.28
2023-02-01T11:47:36.836Z,5.17
2023-02-01T11:48:42.407Z,4.85
2023-02-01T11:49:46.597Z,5.23
2023-02-01T11:50:59.917Z,5.02
2023-02-01T11:52:08.908Z,4.02
2023-02-01T11:53:47.017Z,4.03
2023-02-01T11:55:31.832Z,4.32
2023-02-01T11:57:19.323Z,4.17
2023-02-01T11:58:59.717Z,4.38
2023-02-01T12:00:05.167Z,4.70
2023-02-01T12:01:27.370Z,4.60
2023-02-01T12:02:58.252Z,4.28
2023-02-01T12:04:38.391Z,4.73
2023-02-01T12:06:05.466Z,4.75
2023-02-01T12:07:21.414Z,4.78
2023-02-01T12:08:45.970Z,4.97
2023-02-01T12:09:54.860Z,4.53
2023-02-01T12:11:08.475Z,4.77
2023-02-01T12:12:32.101Z,4.43
2023-02-01T12:13:52.859Z,4.97
2023-02-01T12:15:22.713Z,4.87
2023-02-01T12:16:45.396Z,6.60
2023-02-01T12:18:15.981Z,7.33
2023-02-01T12:19:26.132Z,7.72
2023-02-01T12:21:01.888Z,5.47
2023-02-01T12:22:17.731Z,4.98
2023-02-01T12:23:42.072Z,4.93
2023-02-01T12:25:10.147Z,5.23
2023-02-01T12:26:48.864Z,4.95
2023-02-01T12:28:41.424Z,5.17
2023-02-01T12:30:25.033Z,5.02
2023-02-01T12:31:47.245Z,4.92
2023-02-01T12:33:07.397Z,4.62
2023-02-01T12:35:01.189Z,4.65
2023-02-01T12:37:12.594Z,4.90
2023-02-01T12:38:39.299Z,6.30
2023-02-01T12:40:00.714Z,5.87
2023-02-01T12:41:20.097Z,5.35
2023-02-01T12:44:44.248Z,5.35
2023-02-01T12:46:02.053Z,5.60
2023-02-01T12:47:17.123Z,5.98
2023-02-01T12:48:45.890Z,6.08
2023-02-01T12:50:09.496Z,5.50
2023-02-01T12:51:36.991Z,5.32
2023-02-01T12:52:47.972Z,4.52
2023-02-01T12:54:24.147Z,4.77
2023-02-01T12:55:51.524Z,4.13
2023-02-01T12:56:56.674Z,4.43
2023-02-01T12:58:17.723Z,4.48
2023-02-01T12:59:51.461Z,4.52
2023-02-01T13:01:10.160Z,4.57
2023-02-01T13:02:43.564Z,4.63
2023-02-01T13:03:58.539Z,4.63
2023-02-01T13:05:06.470Z,5.12
2023-02-01T13:07:18.172Z,5.02
2023-02-01T13:08:47.486Z,5.00
2023-02-01T13:10:41.941Z,6.23
2023-02-01T13:12:10.428Z,7.10
2023-02-01T13:13:25.905Z,4.87
2023-02-01T13:15:47.661Z,4.65
2023-02-01T13:19:06.647Z,4.62
2023-02-01T13:25:06.396Z,4.35
2023-02-01T13:31:30.553Z,3.57
2023-02-01T13:33:51.659Z,3.53
2023-02-01T13:34:35.356Z,3.98
2023-02-01T13:35:52.603Z,3.75
2023-02-01T13:37:25.456Z,3.78
2023-02-01T13:39:04.635Z,3.87
2023-02-01T13:40:38.351Z,3.70
2023-02-01T13:42:07.286Z,3.97
2023-02-01T13:43:23.945Z,4.03
2023-02-01T13:44:53.253Z,4.55
2023-02-01T13:46:00.410Z,4.68
2023-02-01T13:47:09.699Z,5.13
2023-02-01T13:48:25.232Z,5.35
2023-02-01T13:49:38.607Z,6.20
2023-02-01T13:50:42.922Z,6.28
2023-02-01T13:51:48.716Z,6.30
2023-02-01T13:52:58.653Z,6.28
2023-02-01T13:54:01.379Z,5.68
2023-02-01T13:55:23.179Z,5.40
2023-02-01T13:56:28.319Z,5.33
2023-02-01T13:57:42.799Z,5.48
2023-02-01T13:58:48.674Z,5.72
2023-02-01T13:59:56.677Z,5.82
2023-02-01T14:01:28.153Z,6.02
2023-02-01T14:02:39.347Z,6.22
2023-02-01T14:03:47.379Z,5.77
2023-02-01T14:04:51.166Z,6.57
2023-02-01T14:05:53.476Z,6.55
2023-02-01T14:06:59.251Z,6.65
2023-02-01T14:08:11.326Z,6.88
2023-02-01T14:09:20.203Z,6.95
2023-02-01T14:10:59.470Z,7.40
2023-02-01T14:12:40.298Z,7.35
2023-02-01T14:13:42.910Z,7.43
2023-02-01T14:14:45.329Z,7.43
2023-02-01T14:16:10.263Z,7.35
2023-02-01T14:17:13.692Z,8.10
2023-02-01T14:18:35.113Z,7.52
2023-02-01T14:20:38.154Z,7.92
2023-02-01T14:21:57.910Z,8.37
2023-02-01T14:23:15.766Z,7.83
2023-02-01T14:24:26.177Z,8.10
2023-02-01T14:25:35.049Z,7.93
2023-02-01T14:26:54.143Z,7.13
2023-02-01T14:27:56.703Z,6.72
2023-02-01T14:29:01.618Z,7.08
2023-02-01T14:30:15.745Z,7.07
2023-02-01T14:31:27.996Z,9.28
2023-02-01T14:32:39.391Z,9.67
2023-02-01T14:33:43.879Z,7.60
2023-02-01T14:34:49.074Z,7.65
2023-02-01T14:36:13.385Z,6.92
2023-02-01T14:37:18.870Z,7.08
2023-02-01T14:38:21.881Z,6.85
2023-02-01T14:39:28.680Z,7.02
2023-02-01T14:40:32.102Z,7.12
2023-02-01T14:41:35.760Z,5.98
2023-02-01T14:42:46.685Z,4.97
2023-02-01T14:44:12.178Z,4.20
2023-02-01T14:45:24.173Z,4.97
2023-02-01T14:47:05.741Z,5.37
2023-02-01T14:48:08.182Z,4.68
2023-02-01T14:49:11.308Z,4.22
2023-02-01T14:50:20.281Z,4.87
2023-02-01T14:51:23.427Z,4.82
2023-02-01T14:52:39.362Z,4.77
2023-02-01T14:53:45.233Z,3.87
2023-02-01T14:54:54.347Z,3.85
2023-02-01T14:56:07.297Z,3.08
2023-02-01T14:57:17.796Z,2.87
2023-02-01T14:58:38.398Z,3.17
2023-02-01T14:59:41.019Z,2.48
2023-02-01T15:00:58.084Z,2.67
2023-02-01T15:02:02.325Z,2.50
2023-02-01T15:03:43.904Z,2.47
2023-02-01T15:04:46.885Z,2.42
2023-02-01T15:06:01.949Z,2.63
2023-02-01T15:07:09.443Z,2.78
2023-02-01T15:08:19.409Z,2.68
2023-02-01T15:09:30.140Z,2.57
2023-02-01T15:10:34.777Z,2.65
2023-02-01T15:12:00.747Z,2.60
2023-02-01T15:13:03.173Z,2.90
2023-02-01T15:14:15.261Z,2.75
2023-02-01T15:15:19.447Z,2.43
2023-02-01T15:16:24.015Z,2.82
2023-02-01T15:17:34.928Z,2.90
2023-02-01T15:18:37.994Z,2.52
2023-02-01T15:19:40.490Z,3.00
2023-02-01T15:20:55.349Z,2.83
2023-02-01T15:22:05.288Z,2.60
2023-02-01T15:23:17.996Z,2.95
2023-02-01T15:24:23.501Z,3.55
2023-02-01T15:25:29.871Z,2.87
2023-02-01T15:26:33.586Z,3.27
2023-02-01T15:27:36.273Z,2.92
2023-02-01T15:28:38.589Z,3.05
2023-02-01T15:29:41.044Z,3.23
2023-02-01T15:31:01.574Z,3.43
2023-02-01T15:32:05.986Z,2.92
2023-02-01T15:33:14.958Z,3.07
2023-02-01T15:34:18.229Z,3.08
2023-02-01T15:35:37.528Z,3.13
2023-02-01T15:36:42.481Z,2.97
2023-02-01T15:37:51.000Z,2.75
2023-02-01T15:39:26.910Z,3.23
2023-02-01T15:40:29.370Z,3.03
2023-02-01T15:41:32.031Z,3.15
2023-02-01T15:42:35.212Z,3.15
2023-02-01T15:43:40.955Z,3.03
2023-02-01T15:44:47.121Z,3.25
2023-02-01T15:45:49.817Z,2.83
2023-02-01T15:46:52.309Z,3.07
2023-02-01T15:47:59.212Z,3.10
2023-02-01T15:49:01.588Z,3.45
2023-02-01T15:50:04.145Z,3.43